createdAt,value
2022-09-16T00:00:48.411Z,66.24
2022-09-16T00:03:20.924Z,66.59
2022-09-16T00:05:54.932Z,66.50
2022-09-16T00:08:25.706Z,66.24
2022-09-16T00:11:02.611Z,66.80
2022-09-16T00:13:33.582Z,67.21
2022-09-16T00:16:11.528Z,67.89
2022-09-16T00:18:42.122Z,68.17
2022-09-16T00:21:11.611Z,68.19
2022-09-16T00:23:43.647Z,68.12
2022-09-16T00:26:15.996Z,68.17
2022-09-16T00:28:47.655Z,68.22
2022-09-16T00:31:20.814Z,67.65
2022-09-16T00:33:51.355Z,67.86
2022-09-16T00:36:22.224Z,67.65
2022-09-16T00:38:55.687Z,67.49
2022-09-16T00:41:33.263Z,67.48
2022-09-16T00:44:03.674Z,67.54
2022-09-16T00:46:37.222Z,67.24
2022-09-16T00:49:07.856Z,66.14
2022-09-16T00:51:38.585Z,65.84
2022-09-16T00:54:09.998Z,65.95
2022-09-16T00:56:43.753Z,66.36
2022-09-16T00:59:20.243Z,66.19
2022-09-16T01:01:50.774Z,66.39
2022-09-16T01:04:23.116Z,66.85
2022-09-16T01:06:52.107Z,67.23
2022-09-16T01:09:27.199Z,67.08
2022-09-16T01:11:59.778Z,67.18
2022-09-16T01:14:47.393Z,67.14
2022-09-16T01:17:25.746Z,66.92
2022-09-16T01:20:35.772Z,67.55
2022-09-16T01:23:28.852Z,67.60
2022-09-16T01:26:09.964Z,67.36
2022-09-16T01:28:56.104Z,67.37
2022-09-16T01:31:32.155Z,67.19
2022-09-16T01:34:12.869Z,66.92
2022-09-16T01:36:53.358Z,66.66
2022-09-16T01:39:32.491Z,66.56
2022-09-16T01:42:12.593Z,66.83
2022-09-16T01:44:49.042Z,66.85
2022-09-16T01:47:23.869Z,67.06
2022-09-16T01:50:00.456Z,67.20
2022-09-16T01:52:38.828Z,66.80
2022-09-16T01:55:11.874Z,66.37
2022-09-16T01:57:47.294Z,66.69
2022-09-16T02:00:16.349Z,66.80
2022-09-16T02:02:51.468Z,66.53
2022-09-16T02:05:25.071Z,66.05
2022-09-16T02:08:02.155Z,65.86
2022-09-16T02:10:36.806Z,65.94
2022-09-16T02:13:15.472Z,66.15
2022-09-16T02:15:48.304Z,65.66
2022-09-16T02:18:25.444Z,65.62
2022-09-16T02:20:59.871Z,65.29
2022-09-16T02:23:37.030Z,65.51
2022-09-16T02:26:13.522Z,65.85
2022-09-16T02:28:46.526Z,65.52
2022-09-16T02:31:16.704Z,65.74
2022-09-16T02:33:55.505Z,66.04
2022-09-16T02:36:28.640Z,65.56
2022-09-16T02:39:09.190Z,65.67
2022-09-16T02:41:43.448Z,66.00
2022-09-16T02:44:15.002Z,66.73
2022-09-16T02:46:59.252Z,67.20
2022-09-16T02:49:43.993Z,67.87
2022-09-16T02:52:22.510Z,67.85
2022-09-16T02:54:58.732Z,67.33
2022-09-16T02:57:32.467Z,67.36
2022-09-16T03:00:03.076Z,67.07
2022-09-16T03:02:36.695Z,66.73
2022-09-16T03:05:11.008Z,66.46
2022-09-16T03:07:45.063Z,66.71
2022-09-16T03:10:16.631Z,66.74
2022-09-16T03:12:57.303Z,66.22
2022-09-16T03:15:38.110Z,65.48
2022-09-16T03:18:38.852Z,64.88
2022-09-16T03:21:17.385Z,64.66
2022-09-16T03:24:01.305Z,64.84
2022-09-16T03:26:39.627Z,64.93
2022-09-16T03:29:20.297Z,64.24
2022-09-16T03:32:01.034Z,63.77
2022-09-16T03:34:37.106Z,63.78
2022-09-16T03:37:13.423Z,63.17
2022-09-16T03:39:45.643Z,63.28
2022-09-16T03:42:17.223Z,63.45
2022-09-16T03:44:46.292Z,64.01
2022-09-16T03:47:14.673Z,64.55
2022-09-16T03:49:44.061Z,64.58
2022-09-16T03:52:15.171Z,64.90
2022-09-16T03:54:44.361Z,64.84
2022-09-16T03:57:13.660Z,65.04
2022-09-16T03:59:43.887Z,64.88
2022-09-16T04:02:12.482Z,64.73
2022-09-16T04:04:40.942Z,65.59
2022-09-16T04:07:08.939Z,65.77
2022-09-16T04:09:38.359Z,65.53
2022-09-16T04:12:07.769Z,65.81
2022-09-16T04:14:36.362Z,65.47
2022-09-16T04:17:04.940Z,65.52
2022-09-16T04:19:33.238Z,64.82
2022-09-16T04:22:01.706Z,65.57
2022-09-16T04:24:30.938Z,65.52
2022-09-16T04:27:00.508Z,65.29
2022-09-16T04:29:30.001Z,65.64
2022-09-16T04:32:01.659Z,65.52
2022-09-16T04:34:34.284Z,65.05
2022-09-16T04:37:07.118Z,64.68
2022-09-16T04:39:37.482Z,64.84
2022-09-16T04:42:12.984Z,64.31
2022-09-16T04:44:45.497Z,65.37
2022-09-16T04:47:17.156Z,65.04
2022-09-16T04:49:47.854Z,64.41
2022-09-16T04:52:17.465Z,63.84
2022-09-16T04:54:47.592Z,63.74
2022-09-16T04:57:19.952Z,63.45
2022-09-16T04:59:51.966Z,63.39
2022-09-16T05:02:24.926Z,63.02
2022-09-16T05:04:57.583Z,62.57
2022-09-16T05:07:31.964Z,62.72
2022-09-16T05:10:05.082Z,63.25
2022-09-16T05:12:37.054Z,63.28
2022-09-16T05:15:09.261Z,63.19
2022-09-16T05:17:50.825Z,62.74
2022-09-16T05:20:22.338Z,62.29
2022-09-16T05:22:53.510Z,62.65
2022-09-16T05:25:23.044Z,61.95
2022-09-16T05:27:52.778Z,62.22
2022-09-16T05:30:25.959Z,62.01
2022-09-16T05:32:56.609Z,62.50
2022-09-16T05:35:27.309Z,62.63
2022-09-16T05:37:58.520Z,62.67
2022-09-16T05:40:30.541Z,62.41
2022-09-16T05:43:02.409Z,62.20
2022-09-16T05:45:32.662Z,62.54
2022-09-16T05:48:01.413Z,62.64
2022-09-16T05:50:29.687Z,61.91
2022-09-16T05:52:57.564Z,62.05
2022-09-16T05:55:26.324Z,62.21
2022-09-16T05:57:54.341Z,61.56
2022-09-16T06:00:23.677Z,62.27
2022-09-16T06:02:51.669Z,61.80
2022-09-16T06:05:19.733Z,61.66
2022-09-16T06:07:47.658Z,62.20
2022-09-16T06:10:15.740Z,62.79
2022-09-16T06:12:43.715Z,63.18
2022-09-16T06:15:12.395Z,62.56
2022-09-16T06:17:41.578Z,62.95
2022-09-16T06:20:14.031Z,62.76
2022-09-16T06:22:42.427Z,62.56
2022-09-16T06:25:10.478Z,62.67
2022-09-16T06:27:38.421Z,62.49
2022-09-16T06:30:07.090Z,62.25
2022-09-16T06:32:35.055Z,62.08
2022-09-16T06:35:05.354Z,62.60
2022-09-16T06:37:34.182Z,62.80
2022-09-16T06:40:02.298Z,62.64
2022-09-16T06:42:30.341Z,62.78
2022-09-16T06:45:05.236Z,62.83
2022-09-16T06:47:35.609Z,62.98
2022-09-16T06:50:10.579Z,63.50
2022-09-16T06:52:43.574Z,63.36
2022-09-16T06:55:14.782Z,63.09
2022-09-16T06:57:48.515Z,63.87
2022-09-16T07:00:17.705Z,63.99
2022-09-16T07:02:48.406Z,64.92
2022-09-16T07:05:20.867Z,65.06
2022-09-16T07:07:54.085Z,65.29
2022-09-16T07:10:24.765Z,65.05
2022-09-16T07:12:56.495Z,65.19
2022-09-16T07:15:27.451Z,65.42
2022-09-16T07:17:59.647Z,64.96
2022-09-16T07:20:33.282Z,65.11
2022-09-16T07:23:03.371Z,64.72
2022-09-16T07:25:35.832Z,64.92
2022-09-16T07:28:04.596Z,65.67
2022-09-16T07:30:35.561Z,64.92
2022-09-16T07:33:07.053Z,64.82
2022-09-16T07:35:41.107Z,64.73
2022-09-16T07:38:12.973Z,64.03
2022-09-16T07:40:42.383Z,63.16
2022-09-16T07:43:12.389Z,62.75
2022-09-16T07:45:40.761Z,62.33
2022-09-16T07:48:10.975Z,61.65
2022-09-16T07:50:41.948Z,61.70
2022-09-16T07:53:11.039Z,61.45
2022-09-16T07:55:42.097Z,61.48
2022-09-16T07:58:13.824Z,60.98
2022-09-16T08:00:44.585Z,60.21
2022-09-16T08:03:16.836Z,60.57
2022-09-16T08:05:49.483Z,61.04
2022-09-16T08:08:20.120Z,59.90
2022-09-16T08:10:56.452Z,59.90
2022-09-16T08:13:30.143Z,59.89
2022-09-16T08:16:02.943Z,59.55
2022-09-16T08:18:32.609Z,57.61
2022-09-16T08:21:10.593Z,57.31
2022-09-16T08:23:42.344Z,56.81
2022-09-16T08:26:14.357Z,53.72
2022-09-16T08:29:07.461Z,51.29
2022-09-16T08:31:39.726Z,50.25
2022-09-16T08:34:10.348Z,50.42
2022-09-16T08:36:41.848Z,51.75
2022-09-16T08:39:13.321Z,51.16
2022-09-16T08:42:10.262Z,51.26
2022-09-16T08:44:47.088Z,49.83
2022-09-16T08:47:29.610Z,49.46
2022-09-16T08:50:01.089Z,49.73
2022-09-16T08:52:33.534Z,49.07
2022-09-16T08:55:08.340Z,48.55
2022-09-16T08:57:43.804Z,48.14
2022-09-16T09:00:16.507Z,48.79
2022-09-16T09:02:52.550Z,50.67
2022-09-16T09:05:28.880Z,49.77
2022-09-16T09:08:10.354Z,50.51
2022-09-16T09:10:49.592Z,51.14
2022-09-16T09:13:43.616Z,50.56
2022-09-16T09:16:17.736Z,50.38
2022-09-16T09:18:50.611Z,49.75
2022-09-16T09:21:27.580Z,49.40
2022-09-16T09:24:28.210Z,49.03
2022-09-16T09:27:01.947Z,48.81
2022-09-16T09:30:05.246Z,49.28
2022-09-16T09:32:52.544Z,49.38
2022-09-16T09:35:48.690Z,46.04
2022-09-16T09:38:54.122Z,47.17
2022-09-16T09:41:32.904Z,47.44
2022-09-16T09:44:15.462Z,48.13
2022-09-16T09:46:51.200Z,46.61
2022-09-16T09:49:27.804Z,48.71
2022-09-16T09:52:04.424Z,49.08
2022-09-16T09:54:38.657Z,50.37
2022-09-16T09:57:19.073Z,51.53
2022-09-16T09:59:55.194Z,52.71
2022-09-16T10:02:26.423Z,53.65
2022-09-16T10:04:57.635Z,54.55
2022-09-16T10:07:30.568Z,55.42
2022-09-16T10:10:15.327Z,53.87
2022-09-16T10:12:46.309Z,52.72
2022-09-16T10:15:31.815Z,52.03
2022-09-16T10:18:05.016Z,52.41
2022-09-16T10:20:41.729Z,52.80
2022-09-16T10:23:15.388Z,51.66
2022-09-16T10:25:47.437Z,52.05
2022-09-16T10:28:26.337Z,50.84
2022-09-16T10:31:01.089Z,51.04
2022-09-16T10:33:36.568Z,52.43
2022-09-16T10:36:11.702Z,50.19
2022-09-16T10:38:43.434Z,51.73
2022-09-16T10:41:18.459Z,52.29
2022-09-16T10:43:54.107Z,53.49
2022-09-16T10:46:25.032Z,52.99
2022-09-16T10:49:02.316Z,53.18
2022-09-16T10:51:33.893Z,50.60
2022-09-16T10:54:06.985Z,51.73
2022-09-16T10:56:53.303Z,50.45
2022-09-16T10:59:26.010Z,48.18
2022-09-16T11:02:17.366Z,47.16
2022-09-16T11:05:00.025Z,48.16
2022-09-16T11:07:41.732Z,49.76
2022-09-16T11:10:24.269Z,50.88
2022-09-16T11:13:27.985Z,51.78
2022-09-16T11:16:18.131Z,51.43
2022-09-16T11:18:56.355Z,50.79
2022-09-16T11:21:57.690Z,49.46
2022-09-16T11:24:56.803Z,46.11
2022-09-16T11:27:38.255Z,45.02
2022-09-16T11:30:15.301Z,44.49
2022-09-16T11:33:09.893Z,44.03
2022-09-16T11:36:15.063Z,44.53
2022-09-16T11:38:59.959Z,45.86
2022-09-16T11:41:38.197Z,45.34
2022-09-16T11:44:24.887Z,45.48
2022-09-16T11:47:08.770Z,45.71
2022-09-16T11:50:04.364Z,45.61
2022-09-16T11:52:48.168Z,46.11
2022-09-16T11:55:34.401Z,46.40
2022-09-16T11:58:11.758Z,46.00
2022-09-16T12:00:42.941Z,45.25
2022-09-16T12:03:29.847Z,45.31
2022-09-16T12:06:10.706Z,45.85
2022-09-16T12:08:58.131Z,44.65
2022-09-16T12:11:34.791Z,44.84
2022-09-16T12:14:15.794Z,45.04
2022-09-16T12:16:51.949Z,43.17
2022-09-16T12:19:28.359Z,42.82
2022-09-16T12:22:09.540Z,43.27
2022-09-16T12:24:45.580Z,44.24
2022-09-16T12:27:30.937Z,45.19
2022-09-16T12:30:06.027Z,44.74
2022-09-16T12:32:45.744Z,45.72
2022-09-16T12:35:19.253Z,45.90
2022-09-16T12:37:53.037Z,46.82
2022-09-16T12:40:25.981Z,48.09
2022-09-16T12:43:31.084Z,49.48
2022-09-16T12:46:21.329Z,49.25
2022-09-16T12:49:12.863Z,50.32
2022-09-16T12:52:11.991Z,50.10
2022-09-16T12:55:12.724Z,47.21
2022-09-16T12:57:55.204Z,45.80
2022-09-16T13:00:30.507Z,46.30
2022-09-16T13:03:07.855Z,48.06
2022-09-16T13:05:40.736Z,46.84
2022-09-16T13:08:23.620Z,48.63
2022-09-16T13:11:29.272Z,51.59
2022-09-16T13:13:53.182Z,53.20
2022-09-16T13:16:35.749Z,55.29
2022-09-16T13:19:29.878Z,55.09
2022-09-16T13:22:06.341Z,56.31
2022-09-16T13:24:42.971Z,57.02
2022-09-16T13:27:30.346Z,58.23
2022-09-16T13:30:32.784Z,59.57
2022-09-16T13:33:28.155Z,59.23
2022-09-16T13:36:16.841Z,59.48
2022-09-16T13:38:50.559Z,59.16
2022-09-16T13:41:37.681Z,59.06
2022-09-16T13:44:32.125Z,59.27
2022-09-16T13:47:20.261Z,59.89
2022-09-16T13:49:57.297Z,60.08
2022-09-16T13:52:30.985Z,61.11
2022-09-16T13:55:11.473Z,62.67
2022-09-16T13:57:59.265Z,63.82
2022-09-16T14:00:38.330Z,64.17
2022-09-16T14:03:45.088Z,64.42
2022-09-16T14:06:31.604Z,65.21
2022-09-16T14:09:11.791Z,65.28
2022-09-16T14:11:48.283Z,65.28
2022-09-16T14:14:48.497Z,64.84
2022-09-16T14:17:21.771Z,64.55
2022-09-16T14:20:00.871Z,63.47
2022-09-16T14:22:32.557Z,62.29
2022-09-16T14:25:06.564Z,60.05
2022-09-16T14:27:44.767Z,58.60
2022-09-16T14:30:19.230Z,59.08
2022-09-16T14:32:53.159Z,59.72
2022-09-16T14:35:27.892Z,60.11
2022-09-16T14:38:03.799Z,60.51
2022-09-16T14:40:34.971Z,60.05
2022-09-16T14:43:10.546Z,60.76
2022-09-16T14:45:39.687Z,61.55
2022-09-16T14:48:11.580Z,62.07
2022-09-16T14:50:45.494Z,62.85
2022-09-16T14:53:35.884Z,63.78
2022-09-16T14:56:20.684Z,64.16
2022-09-16T14:58:52.710Z,64.74
2022-09-16T15:01:29.589Z,65.47
2022-09-16T15:04:06.452Z,65.99
2022-09-16T15:06:46.369Z,66.86
2022-09-16T15:09:22.843Z,66.99
2022-09-16T15:11:57.694Z,67.11
2022-09-16T15:14:29.016Z,66.82
2022-09-16T15:17:01.166Z,67.68
2022-09-16T15:19:39.186Z,68.21
2022-09-16T15:22:11.885Z,68.90
2022-09-16T15:24:43.696Z,69.51
2022-09-16T15:27:14.239Z,69.54
2022-09-16T15:29:51.732Z,69.48
2022-09-16T15:32:28.036Z,69.53
2022-09-16T15:35:18.630Z,69.31
2022-09-16T15:37:48.579Z,68.78
2022-09-16T15:40:34.398Z,69.13
2022-09-16T15:43:18.970Z,69.08
2022-09-16T15:45:59.312Z,69.21
2022-09-16T15:48:33.290Z,69.41
2022-09-16T15:51:09.255Z,69.68
2022-09-16T15:53:48.953Z,69.77
2022-09-16T15:56:27.035Z,69.56
2022-09-16T15:59:02.125Z,69.90
2022-09-16T16:01:54.941Z,69.83
2022-09-16T16:04:30.129Z,69.77
2022-09-16T16:07:03.512Z,70.12
2022-09-16T16:09:43.560Z,70.29
2022-09-16T16:12:17.283Z,70.55
2022-09-16T16:14:49.045Z,70.32
2022-09-16T16:17:22.104Z,70.92
2022-09-16T16:19:52.726Z,71.23
2022-09-16T16:22:23.036Z,71.42
2022-09-16T16:24:54.167Z,71.29
2022-09-16T16:27:26.096Z,70.93
2022-09-16T16:29:54.646Z,70.50
2022-09-16T16:32:25.380Z,69.99
2022-09-16T16:34:58.922Z,70.34
2022-09-16T16:37:45.958Z,70.15
2022-09-16T16:40:22.498Z,70.98
2022-09-16T16:42:53.236Z,71.14
2022-09-16T16:45:22.900Z,70.37
2022-09-16T16:47:53.545Z,70.17
2022-09-16T16:50:22.864Z,69.83
2022-09-16T16:52:55.826Z,69.96
2022-09-16T16:55:26.986Z,70.90
2022-09-16T16:57:57.508Z,70.76
2022-09-16T17:00:28.845Z,70.05
2022-09-16T17:03:00.257Z,70.08
2022-09-16T17:05:32.001Z,69.92
2022-09-16T17:08:03.689Z,70.08
2022-09-16T17:10:32.618Z,69.63
2022-09-16T17:13:01.590Z,69.23
2022-09-16T17:15:31.042Z,68.91
2022-09-16T17:18:01.763Z,69.26
2022-09-16T17:20:34.328Z,69.50
2022-09-16T17:23:06.445Z,69.17
2022-09-16T17:25:36.791Z,69.17
2022-09-16T17:28:06.626Z,68.84
2022-09-16T17:30:35.123Z,68.60
2022-09-16T17:33:04.502Z,68.75
2022-09-16T17:35:32.734Z,70.12
2022-09-16T17:38:04.871Z,70.20
2022-09-16T17:40:36.233Z,70.82
2022-09-16T17:43:04.502Z,71.34
2022-09-16T17:45:33.804Z,71.39
2022-09-16T17:48:04.748Z,71.29
2022-09-16T17:50:36.435Z,71.26
2022-09-16T17:53:05.406Z,71.20
2022-09-16T17:55:33.295Z,71.06
2022-09-16T17:58:02.844Z,70.60
2022-09-16T18:00:30.823Z,70.44
2022-09-16T18:03:01.104Z,70.28
2022-09-16T18:05:31.765Z,70.20
2022-09-16T18:08:04.641Z,71.13
2022-09-16T18:10:36.493Z,71.13
2022-09-16T18:13:07.353Z,70.85
2022-09-16T18:15:36.805Z,70.61
2022-09-16T18:18:07.724Z,70.37
2022-09-16T18:20:39.809Z,70.41
2022-09-16T18:23:12.279Z,69.73
2022-09-16T18:25:41.754Z,69.71
2022-09-16T18:28:12.571Z,69.70
2022-09-16T18:30:44.829Z,69.64
2022-09-16T18:33:15.757Z,69.52
2022-09-16T18:35:50.960Z,69.49
2022-09-16T18:38:23.683Z,69.88
2022-09-16T18:41:04.177Z,70.17
2022-09-16T18:43:37.833Z,70.19
2022-09-16T18:46:12.687Z,70.22
2022-09-16T18:48:45.167Z,69.32
2022-09-16T18:51:20.829Z,68.72
2022-09-16T18:53:53.362Z,68.78
2022-09-16T18:56:26.109Z,68.55
2022-09-16T18:59:21.625Z,68.63
2022-09-16T19:01:53.918Z,68.74
2022-09-16T19:04:26.683Z,68.80
2022-09-16T19:07:06.548Z,68.46
2022-09-16T19:09:39.480Z,68.57
2022-09-16T19:12:12.472Z,68.66
2022-09-16T19:14:44.613Z,68.47
2022-09-16T19:17:14.501Z,68.35
2022-09-16T19:19:45.100Z,68.21
2022-09-16T19:22:14.026Z,68.28
2022-09-16T19:24:43.764Z,68.21
2022-09-16T19:27:15.298Z,68.31
2022-09-16T19:29:50.538Z,68.83
2022-09-16T19:32:21.560Z,69.71
2022-09-16T19:34:50.856Z,68.91
2022-09-16T19:37:20.252Z,69.03
2022-09-16T19:39:51.451Z,69.48
2022-09-16T19:42:23.376Z,69.40
2022-09-16T19:44:54.071Z,69.20
2022-09-16T19:47:24.175Z,68.86
2022-09-16T19:49:55.438Z,68.50
2022-09-16T19:52:25.805Z,68.68
2022-09-16T19:54:57.679Z,68.27
2022-09-16T19:57:25.751Z,67.97
2022-09-16T19:59:56.504Z,67.12
2022-09-16T20:02:26.937Z,66.69
2022-09-16T20:04:57.891Z,67.02
2022-09-16T20:07:28.563Z,66.81
2022-09-16T20:09:59.836Z,66.55
2022-09-16T20:12:30.552Z,66.57
2022-09-16T20:15:06.221Z,66.53
2022-09-16T20:17:38.380Z,66.72
2022-09-16T20:20:09.700Z,66.75
2022-09-16T20:22:43.545Z,67.21
2022-09-16T20:25:22.953Z,67.37
2022-09-16T20:27:52.640Z,66.93
2022-09-16T20:30:24.066Z,66.18
2022-09-16T20:32:58.031Z,66.24
2022-09-16T20:35:32.312Z,66.27
2022-09-16T20:38:03.924Z,66.39
2022-09-16T20:40:37.099Z,65.62
2022-09-16T20:43:08.098Z,65.39
2022-09-16T20:45:40.212Z,64.78
2022-09-16T20:48:14.269Z,64.33
2022-09-16T20:50:43.946Z,63.78
2022-09-16T20:53:16.252Z,63.88
2022-09-16T20:55:45.040Z,63.73
2022-09-16T20:58:16.083Z,63.61
2022-09-16T21:00:46.001Z,63.46
2022-09-16T21:03:16.363Z,63.38
2022-09-16T21:05:46.921Z,63.67
2022-09-16T21:08:18.867Z,64.28
2022-09-16T21:10:53.477Z,64.62
2022-09-16T21:13:26.026Z,64.49
2022-09-16T21:16:02.646Z,64.39
2022-09-16T21:18:35.503Z,64.36
2022-09-16T21:21:10.181Z,64.36
2022-09-16T21:23:41.065Z,63.96
2022-09-16T21:26:15.646Z,63.80
2022-09-16T21:28:51.273Z,63.04
2022-09-16T21:31:23.377Z,62.26
2022-09-16T21:33:55.196Z,61.48
2022-09-16T21:36:30.941Z,61.34
2022-09-16T21:39:05.135Z,61.69
2022-09-16T21:41:37.148Z,61.74
2022-09-16T21:44:08.935Z,61.66
2022-09-16T21:46:49.821Z,61.64
2022-09-16T21:49:25.227Z,60.88
2022-09-16T21:51:54.873Z,61.02
2022-09-16T21:54:23.619Z,60.55
2022-09-16T21:56:54.875Z,60.21
2022-09-16T21:59:23.635Z,60.12
2022-09-16T22:01:53.462Z,59.66
2022-09-16T22:04:23.337Z,59.75
2022-09-16T22:06:52.764Z,59.77
2022-09-16T22:09:22.075Z,59.88
2022-09-16T22:11:50.752Z,59.49
2022-09-16T22:14:19.189Z,58.88
2022-09-16T22:16:47.408Z,59.04
2022-09-16T22:19:18.905Z,58.78
2022-09-16T22:21:49.718Z,58.62
2022-09-16T22:24:21.812Z,58.25
2022-09-16T22:26:51.315Z,57.58
2022-09-16T22:29:19.646Z,57.62
2022-09-16T22:31:47.836Z,57.14
2022-09-16T22:34:17.530Z,57.25
2022-09-16T22:36:45.515Z,57.25
2022-09-16T22:39:15.323Z,56.84
2022-09-16T22:41:43.632Z,56.42
2022-09-16T22:44:11.902Z,56.20
2022-09-16T22:46:42.459Z,56.29
2022-09-16T22:49:11.082Z,56.87
2022-09-16T22:51:40.927Z,57.50
2022-09-16T22:54:10.071Z,57.78
2022-09-16T22:56:43.590Z,58.22
2022-09-16T22:59:18.768Z,58.37
2022-09-16T23:01:48.856Z,58.03
2022-09-16T23:04:19.878Z,57.67
2022-09-16T23:06:52.754Z,56.92
2022-09-16T23:09:24.408Z,56.27
2022-09-16T23:11:55.327Z,55.28
2022-09-16T23:14:27.384Z,55.15
2022-09-16T23:16:59.148Z,54.48
2022-09-16T23:19:30.477Z,54.06
2022-09-16T23:22:00.788Z,53.30
2022-09-16T23:24:34.368Z,53.73
2022-09-16T23:27:05.542Z,53.80
2022-09-16T23:29:36.886Z,53.12
2022-09-16T23:32:08.250Z,52.71
2022-09-16T23:34:42.117Z,52.74
2022-09-16T23:37:12.288Z,52.58
2022-09-16T23:39:40.514Z,52.20
2022-09-16T23:42:12.142Z,51.84
2022-09-16T23:44:40.317Z,51.55
2022-09-16T23:47:08.520Z,51.59
2022-09-16T23:49:36.718Z,51.45
2022-09-16T23:52:07.700Z,51.45
2022-09-16T23:54:37.365Z,51.89
2022-09-16T23:57:07.701Z,52.78
2022-09-16T23:59:36.384Z,54.00
